Archival Weather

Heathrow

Heathrow, United Kingdom (EGLL)

Report from: Thursday, June 23, 2022 10:20 PM BST
Current time: Tuesday, August 16, 2022 8:40 AM BST

Current weather
Weather history
Weather forecast

Temperature19.0°C (66.2°F)
Dew point15.0°C (59.0°F)
Winds 8 kts (4.1 m/s, 9.2 mph) Vrb
Winds variableWinds variable from South-Southeast (150°) to West-Southwest (240°)
Visibility6.2 mi. (10 km)
Clouds Sky clear
Altimeter29.77 in.Hg (1008 mB)
Relative humidity78 %
Density altitude882 ft. (269 m)
Remarks Fully automated report
Corrected report
No clouds detected
No significant changes expected in the next two hours
Flight conditions Visual Meteorological Conditions
Raw dataCOR EGLL 232120Z AUTO 19008KT 150V240 9999 NCD 19/15 Q1008 NOSIG
An error has occurred. This application may no longer respond until reloaded. Reload 🗙